Time;durP1;ratioP1;P1;durP2;ratioP2;P2;SDS_P1;SDS_P2;PMS_P1;PMS_P2;Temp;Humidity;BMP_temperature;BMP_pressure;BME280_temperature;BME280_humidity;BME280_pressure;Samples;Min_cycle;Max_cycle;Signal;HPM_P1;HPM_P2
2024/01/29 00:00:30;;;;;;;1.25;1.05;;;7.10;45.10;;;;;;5094293;28;20032;-72
2024/01/29 00:02:56;;;;;;;0.70;0.70;;;6.90;49.60;;;;;;5094278;28;20032;-71
2024/01/29 00:05:21;;;;;;;1.33;1.23;;;7.10;46.40;;;;;;5093833;28;20043;-72
2024/01/29 00:07:47;;;;;;;1.20;1.10;;;7.20;41.20;;;;;;5094273;28;20039;-72
2024/01/29 00:10:21;;;;;;;1.13;0.88;;;6.80;45.90;;;;;;5094553;28;20407;-58
2024/01/29 00:12:47;;;;;;;1.80;1.20;;;6.80;50.10;;;;;;5093821;28;20039;-58
2024/01/29 00:15:13;;;;;;;0.95;0.90;;;6.80;48.40;;;;;;5075816;28;20036;-58
2024/01/29 00:17:38;;;;;;;0.90;0.90;;;7.00;56.60;;;;;;5093904;28;20036;-58
2024/01/29 00:20:06;;;;;;;0.80;0.80;;;6.70;49.90;;;;;;5093785;28;20047;-62
2024/01/29 00:22:32;;;;;;;1.02;0.95;;;6.60;63.00;;;;;;5093819;28;20100;-62
2024/01/29 00:24:58;;;;;;;0.60;0.60;;;6.50;68.40;;;;;;5093793;28;20039;-62
2024/01/29 00:27:23;;;;;;;1.92;1.02;;;6.20;63.00;;;;;;5093768;28;20037;-62
2024/01/29 00:29:49;;;;;;;1.40;1.15;;;6.50;73.70;;;;;;5093844;28;20492;-71
2024/01/29 00:32:14;;;;;;;0.88;0.88;;;6.40;79.60;;;;;;5093670;28;20044;-71
2024/01/29 00:34:40;;;;;;;1.20;1.10;;;6.40;76.10;;;;;;5093700;28;20036;-72
2024/01/29 00:37:06;;;;;;;1.30;1.00;;;6.40;81.60;;;;;;5093705;28;20031;-72
2024/01/29 00:39:33;;;;;;;1.20;1.08;;;6.60;91.10;;;;;;5093691;28;20040;-58
2024/01/29 00:41:58;;;;;;;0.70;0.70;;;6.30;92.40;;;;;;5093509;28;20047;-58
2024/01/29 00:44:24;;;;;;;0.98;0.98;;;6.30;94.50;;;;;;5075399;28;20510;-59
2024/01/29 00:46:50;;;;;;;1.13;1.00;;;6.30;99.70;;;;;;5075090;28;20052;-58
2024/01/29 00:49:15;;;;;;;1.10;1.00;;;6.30;99.90;;;;;;5093118;28;20076;-61
2024/01/29 00:51:41;;;;;;;0.95;0.93;;;6.20;99.90;;;;;;5093408;28;20119;-64
2024/01/29 00:54:07;;;;;;;0.80;0.80;;;6.40;99.90;;;;;;5093355;28;20428;-62
2024/01/29 00:56:32;;;;;;;0.93;0.90;;;6.60;99.90;;;;;;5093016;28;20147;-61
2024/01/29 00:58:58;;;;;;;0.82;0.82;;;6.30;99.90;;;;;;5092937;28;20040;-60
2024/01/29 01:01:24;;;;;;;0.80;0.80;;;6.30;99.90;;;;;;5093261;28;20076;-61
2024/01/29 01:03:49;;;;;;;1.00;0.95;;;6.80;99.90;;;;;;5093106;28;20535;-61
2024/01/29 01:06:15;;;;;;;1.30;0.98;;;7.40;99.90;;;;;;5093243;28;20141;-61
2024/01/29 01:08:40;;;;;;;0.80;0.80;;;6.30;99.90;;;;;;5075042;28;20043;-61
2024/01/29 01:11:07;;;;;;;0.85;0.85;;;6.40;99.90;;;;;;5093536;28;20055;-61
2024/01/29 01:13:39;;;;;;;0.80;0.80;;;6.30;99.90;;;;;;5093060;28;20132;-61
2024/01/29 01:16:05;;;;;;;1.15;0.90;;;6.30;99.90;;;;;;5093147;28;20531;-63
2024/01/29 01:18:31;;;;;;;1.08;1.02;;;7.30;99.90;;;;;;5093117;28;20046;-61
2024/01/29 01:20:56;;;;;;;1.55;1.30;;;7.20;99.90;;;;;;5093147;28;20040;-61
2024/01/29 01:23:22;;;;;;;0.93;0.93;;;6.80;99.90;;;;;;5093006;28;20036;-61
2024/01/29 01:25:47;;;;;;;1.58;1.15;;;6.20;99.90;;;;;;5093111;28;20036;-62
2024/01/29 01:28:13;;;;;;;0.85;0.85;;;6.20;99.90;;;;;;5092705;28;20047;-61
2024/01/29 01:30:39;;;;;;;1.17;1.00;;;7.10;99.90;;;;;;5074673;28;20047;-61
2024/01/29 01:33:05;;;;;;;1.02;0.93;;;6.10;99.90;;;;;;5092921;28;20032;-61
2024/01/29 01:35:31;;;;;;;1.13;1.02;;;6.50;99.90;;;;;;5092968;28;20040;-61
2024/01/29 01:37:56;;;;;;;1.10;1.00;;;6.00;99.90;;;;;;5092688;28;20039;-61
2024/01/29 01:40:22;;;;;;;1.02;0.93;;;6.00;99.90;;;;;;5092778;28;20036;-72
2024/01/29 01:42:48;;;;;;;0.90;0.90;;;6.40;99.90;;;;;;5092523;28;20092;-71
2024/01/29 01:45:13;;;;;;;0.75;0.75;;;5.90;99.90;;;;;;5092558;28;20036;-70
2024/01/29 01:47:40;;;;;;;1.10;1.00;;;5.90;99.90;;;;;;5092921;28;20044;-72
2024/01/29 01:50:08;;;;;;;1.08;0.98;;;6.70;99.90;;;;;;5092866;28;20454;-72
2024/01/29 01:52:35;;;;;;;1.13;1.02;;;5.80;99.90;;;;;;5074707;28;20047;-68
2024/01/29 01:55:01;;;;;;;1.10;1.00;;;5.70;99.90;;;;;;5092864;28;20107;-69
2024/01/29 01:57:28;;;;;;;0.70;0.70;;;5.70;99.90;;;;;;5092754;28;20115;-71
2024/01/29 01:59:55;;;;;;;0.98;0.93;;;5.70;99.90;;;;;;5092899;28;20084;-61
2024/01/29 02:02:21;;;;;;;1.58;1.20;;;5.70;99.90;;;;;;5092692;28;20043;-61
2024/01/29 02:04:47;;;;;;;0.88;0.88;;;5.60;99.90;;;;;;5092429;28;20425;-60
2024/01/29 02:07:13;;;;;;;1.00;0.95;;;5.60;99.90;;;;;;5092338;28;20111;-63
2024/01/29 02:09:53;;;;;;;1.10;1.00;;;5.60;99.90;;;;;;5092805;28;20139;-61
2024/01/29 02:12:25;;;;;;;1.10;1.00;;;5.50;99.90;;;;;;5092617;28;20048;-65
2024/01/29 02:14:51;;;;;;;1.42;1.05;;;5.50;1.00;;;;;;5092646;28;20594;-61
2024/01/29 02:17:17;;;;;;;1.17;1.02;;;6.80;1.00;;;;;;5095393;28;20040;-61
2024/01/29 02:19:43;;;;;;;1.30;1.13;;;6.30;1.00;;;;;;5096187;28;20036;-61
2024/01/29 02:22:08;;;;;;;1.20;1.10;;;5.40;1.00;;;;;;5096242;28;20036;-62
2024/01/29 02:24:34;;;;;;;1.23;1.13;;;6.40;1.00;;;;;;5096181;28;20483;-61
2024/01/29 02:27:00;;;;;;;1.23;1.00;;;5.40;1.00;;;;;;5096036;28;20052;-61
2024/01/29 02:29:25;;;;;;;1.30;0.98;;;5.40;1.00;;;;;;5095623;28;20528;-61
2024/01/29 02:31:51;;;;;;;0.88;0.88;;;5.40;1.00;;;;;;5095994;28;20032;-61
2024/01/29 02:34:17;;;;;;;1.10;1.05;;;5.40;12.60;;;;;;5095620;28;20044;-61
2024/01/29 02:36:43;;;;;;;0.90;0.90;;;6.80;23.80;;;;;;5095848;28;20047;-61
2024/01/29 02:39:09;;;;;;;1.02;0.93;;;5.40;32.60;;;;;;5095860;28;20047;-61
2024/01/29 02:41:35;;;;;;;1.25;1.15;;;5.40;52.80;;;;;;5095812;28;20040;-61
2024/01/29 02:44:00;;;;;;;1.10;1.00;;;5.30;92.60;;;;;;5095803;28;20035;-61
2024/01/29 02:46:26;;;;;;;1.20;1.00;;;5.30;99.90;;;;;;5095710;28;20074;-61
2024/01/29 02:48:52;;;;;;;1.90;1.15;;;5.30;99.90;;;;;;5095553;28;20040;-62
2024/01/29 02:51:17;;;;;;;1.08;0.90;;;5.50;99.90;;;;;;5095723;28;20471;-62
2024/01/29 02:53:43;;;;;;;1.20;1.10;;;6.20;99.90;;;;;;5095334;28;20040;-62
2024/01/29 02:56:08;;;;;;;1.15;0.95;;;5.20;99.90;;;;;;5095510;28;20058;-62
2024/01/29 02:58:34;;;;;;;1.13;1.05;;;5.30;99.90;;;;;;5095418;28;20484;-62
2024/01/29 03:01:00;;;;;;;1.10;1.00;;;5.30;99.90;;;;;;5095132;28;20044;-62
2024/01/29 03:03:25;;;;;;;1.05;1.00;;;5.20;99.90;;;;;;5095145;28;20044;-62
2024/01/29 03:05:51;;;;;;;1.27;1.10;;;6.10;99.90;;;;;;5095354;28;20094;-62
2024/01/29 03:08:17;;;;;;;1.05;0.98;;;5.10;99.90;;;;;;5095419;28;20063;-62
2024/01/29 03:10:56;;;;;;;1.27;1.08;;;5.10;1.00;;;;;;5077669;28;20056;-61
2024/01/29 03:13:28;;;;;;;1.30;1.10;;;5.70;1.00;;;;;;5095169;28;20040;-62
2024/01/29 03:15:54;;;;;;;1.30;1.10;;;5.20;1.00;;;;;;5095257;28;20529;-62
2024/01/29 03:18:19;;;;;;;1.75;1.10;;;6.20;19.60;;;;;;5095082;28;20044;-62
2024/01/29 03:20:45;;;;;;;1.35;1.25;;;5.00;99.90;;;;;;5095145;28;20050;-62
2024/01/29 03:23:11;;;;;;;1.05;1.00;;;5.00;99.90;;;;;;5094984;28;20049;-61
2024/01/29 03:25:36;;;;;;;0.80;0.80;;;5.60;99.90;;;;;;5094663;28;20491;-62
2024/01/29 03:28:02;;;;;;;1.08;0.95;;;5.00;99.90;;;;;;5094487;28;20039;-62
2024/01/29 03:30:28;;;;;;;1.17;1.08;;;5.00;99.90;;;;;;5094628;28;20070;-62
2024/01/29 03:32:56;;;;;;;1.02;0.93;;;5.00;99.90;;;;;;5094819;28;20472;-62
2024/01/29 03:35:21;;;;;;;1.92;1.38;;;5.00;99.90;;;;;;5094563;28;20372;-62
2024/01/29 03:37:47;;;;;;;0.98;0.88;;;5.00;1.00;;;;;;5094788;28;20041;-62
2024/01/29 03:40:13;;;;;;;1.23;1.10;;;5.00;1.00;;;;;;5094618;28;20072;-62
2024/01/29 03:42:39;;;;;;;1.75;1.20;;;5.10;1.00;;;;;;5094609;28;20488;-62
2024/01/29 03:45:05;;;;;;;1.50;1.23;;;5.10;99.90;;;;;;5094298;28;20040;-62
2024/01/29 03:47:31;;;;;;;1.83;1.30;;;5.10;1.00;;;;;;5094717;28;20403;-62
2024/01/29 03:49:57;;;;;;;1.98;1.35;;;5.20;1.00;;;;;;5094165;28;20070;-62
2024/01/29 03:52:22;;;;;;;1.20;1.10;;;5.20;1.00;;;;;;5094156;28;20044;-62
2024/01/29 03:54:48;;;;;;;1.30;1.17;;;5.30;1.00;;;;;;5094130;28;20028;-62
2024/01/29 03:57:13;;;;;;;1.40;1.30;;;5.20;1.00;;;;;;5094310;28;20039;-61
2024/01/29 03:59:39;;;;;;;1.10;1.00;;;5.10;1.00;;;;;;5094320;28;20048;-61
2024/01/29 04:02:05;;;;;;;1.23;1.13;;;5.60;1.00;;;;;;5094330;28;20043;-61
2024/01/29 04:04:31;;;;;;;1.05;0.98;;;6.20;1.00;;;;;;5094234;28;20044;-61
2024/01/29 04:06:57;;;;;;;1.33;1.23;;;6.30;1.00;;;;;;5075738;28;20054;-60
2024/01/29 04:09:37;;;;;;;1.10;1.00;;;5.40;22.50;;;;;;5094574;28;20123;-60
2024/01/29 04:12:10;;;;;;;1.17;1.00;;;5.10;43.90;;;;;;5093700;28;20052;-60
2024/01/29 04:14:36;;;;;;;1.42;1.25;;;5.10;88.80;;;;;;5094012;28;20090;-61
2024/01/29 04:17:05;;;;;;;0.90;0.90;;;5.60;99.90;;;;;;5093900;28;20093;-60
2024/01/29 04:19:31;;;;;;;1.35;1.25;;;5.10;99.90;;;;;;5093927;28;20047;-61
2024/01/29 04:21:57;;;;;;;0.95;0.95;;;5.70;99.90;;;;;;5093641;28;20032;-61
2024/01/29 04:24:23;;;;;;;1.65;1.13;;;5.20;99.90;;;;;;5075589;28;20127;-61
2024/01/29 04:26:49;;;;;;;1.02;1.02;;;5.00;99.90;;;;;;5093480;28;20123;-61
2024/01/29 04:29:15;;;;;;;1.30;1.20;;;5.10;1.00;;;;;;5093781;28;20464;-61
2024/01/29 04:31:40;;;;;;;1.33;1.23;;;5.10;1.00;;;;;;5093655;28;20115;-61
2024/01/29 04:34:06;;;;;;;1.20;1.10;;;6.20;1.00;;;;;;5093706;28;20039;-61
2024/01/29 04:36:32;;;;;;;1.30;1.20;;;5.00;1.00;;;;;;5093736;28;20043;-61
2024/01/29 04:38:58;;;;;;;1.23;1.13;;;5.00;69.00;;;;;;5093278;28;20035;-62
2024/01/29 04:41:24;;;;;;;1.20;1.10;;;5.00;99.90;;;;;;5093567;28;20036;-61
2024/01/29 04:43:49;;;;;;;1.30;1.20;;;4.90;1.00;;;;;;5093484;28;20188;-61
2024/01/29 04:46:15;;;;;;;1.30;1.20;;;6.00;99.90;;;;;;5075424;28;20039;-61
2024/01/29 04:48:41;;;;;;;1.15;1.05;;;4.90;99.90;;;;;;5093368;28;20488;-61
2024/01/29 04:51:07;;;;;;;1.40;1.23;;;4.90;1.00;;;;;;5093112;28;20036;-61
2024/01/29 04:53:34;;;;;;;0.93;0.90;;;5.30;99.90;;;;;;5093390;28;20036;-61
2024/01/29 04:56:03;;;;;;;1.30;1.20;;;4.90;1.00;;;;;;5093237;28;20036;-62
2024/01/29 04:58:29;;;;;;;1.17;1.05;;;5.00;99.90;;;;;;5093331;28;20494;-61
2024/01/29 05:00:55;;;;;;;1.77;1.20;;;5.00;99.90;;;;;;5075055;28;20044;-61
2024/01/29 05:03:21;;;;;;;1.17;1.10;;;5.00;99.90;;;;;;5093302;28;20085;-61
2024/01/29 05:05:46;;;;;;;1.35;1.05;;;4.90;1.00;;;;;;5093272;28;20032;-61
2024/01/29 05:08:13;;;;;;;2.17;1.67;;;4.90;88.00;;;;;;5093094;28;20038;-61
2024/01/29 05:10:52;;;;;;;1.38;1.15;;;5.00;99.90;;;;;;5093584;28;20098;-61
2024/01/29 05:13:17;;;;;;;0.90;0.90;;;4.90;99.90;;;;;;5093453;28;20040;-70
2024/01/29 05:15:43;;;;;;;0.90;0.90;;;5.50;99.90;;;;;;5093425;28;20506;-70
2024/01/29 05:18:09;;;;;;;1.42;1.23;;;4.90;99.90;;;;;;5093255;28;20040;-70
2024/01/29 05:20:34;;;;;;;1.00;1.00;;;5.00;99.90;;;;;;5092642;28;20458;-70
2024/01/29 05:23:00;;;;;;;1.50;1.40;;;4.90;99.90;;;;;;5092988;28;20047;-70
2024/01/29 05:25:26;;;;;;;1.70;1.10;;;6.30;1.00;;;;;;5093210;28;20032;-71
2024/01/29 05:27:51;;;;;;;1.33;1.23;;;4.90;16.60;;;;;;5093013;28;20039;-71
2024/01/29 05:30:17;;;;;;;1.40;1.30;;;5.50;99.90;;;;;;5092962;28;20039;-67
2024/01/29 05:32:42;;;;;;;1.20;1.10;;;4.90;1.00;;;;;;5092774;28;20048;-57
2024/01/29 05:35:09;;;;;;;0.95;0.90;;;4.90;1.00;;;;;;5092996;28;20503;-57
2024/01/29 05:37:35;;;;;;;1.15;1.10;;;4.90;77.30;;;;;;5074606;28;20044;-57
2024/01/29 05:40:01;;;;;;;1.45;1.25;;;4.90;99.90;;;;;;5092801;28;20036;-57
2024/01/29 05:42:27;;;;;;;1.20;1.10;;;4.90;99.90;;;;;;5092762;28;20086;-58
2024/01/29 05:44:53;;;;;;;1.45;1.35;;;5.80;99.90;;;;;;5092866;28;20595;-58
2024/01/29 05:47:18;;;;;;;1.58;1.42;;;4.90;99.90;;;;;;5092827;28;20487;-57
2024/01/29 05:49:44;;;;;;;1.35;1.25;;;4.90;99.90;;;;;;5092711;28;20036;-57
2024/01/29 05:52:10;;;;;;;1.58;1.38;;;4.90;1.00;;;;;;5095601;28;20579;-58
2024/01/29 05:54:36;;;;;;;1.52;1.20;;;4.90;1.00;;;;;;5096753;28;20067;-58
2024/01/29 05:57:02;;;;;;;1.52;1.40;;;4.90;99.90;;;;;;5078508;28;20097;-57
2024/01/29 05:59:27;;;;;;;1.20;1.10;;;4.90;99.60;;;;;;5096650;28;20032;-58
2024/01/29 06:01:53;;;;;;;1.58;1.48;;;4.90;99.90;;;;;;5096311;28;20450;-58
2024/01/29 06:04:19;;;;;;;1.40;1.23;;;6.00;99.90;;;;;;5078057;28;20312;-61
2024/01/29 06:06:44;;;;;;;2.13;1.50;;;4.80;99.90;;;;;;5096533;28;20039;-58
2024/01/29 06:09:10;;;;;;;1.60;1.50;;;4.90;99.90;;;;;;5096400;28;20044;-58
2024/01/29 06:11:36;;;;;;;1.77;1.23;;;5.90;99.90;;;;;;5078488;28;20534;-58
2024/01/29 06:14:08;;;;;;;1.70;1.50;;;4.90;99.90;;;;;;5096391;28;20047;-59
2024/01/29 06:16:34;;;;;;;1.42;1.33;;;4.90;99.90;;;;;;5096258;28;20032;-58
2024/01/29 06:19:00;;;;;;;1.35;1.20;;;4.90;99.90;;;;;;5096269;28;20490;-58
2024/01/29 06:21:26;;;;;;;1.55;1.45;;;4.90;99.90;;;;;;5096139;28;20035;-58
2024/01/29 06:23:51;;;;;;;1.30;1.20;;;4.90;99.90;;;;;;5096263;28;20178;-61
2024/01/29 06:26:17;;;;;;;1.27;1.17;;;5.00;99.90;;;;;;5095837;28;20047;-62
2024/01/29 06:28:43;;;;;;;1.40;1.30;;;5.00;99.90;;;;;;5095990;28;20043;-61
2024/01/29 06:31:09;;;;;;;1.35;1.25;;;5.00;99.90;;;;;;5095999;28;20041;-62
2024/01/29 06:33:36;;;;;;;1.40;1.30;;;6.00;99.90;;;;;;5095673;28;20032;-60
2024/01/29 06:36:08;;;;;;;1.20;1.10;;;5.00;99.90;;;;;;5095652;28;20491;-60
2024/01/29 06:38:34;;;;;;;1.42;1.33;;;5.00;99.90;;;;;;5077511;28;20430;-61
2024/01/29 06:40:59;;;;;;;1.27;1.17;;;6.20;99.90;;;;;;5095789;28;20089;-64
2024/01/29 06:43:27;;;;;;;1.27;1.17;;;5.80;99.90;;;;;;5095938;28;20056;-58
2024/01/29 06:45:53;;;;;;;1.45;1.35;;;4.90;99.90;;;;;;5095758;28;20126;-58
2024/01/29 06:48:19;;;;;;;1.83;1.33;;;4.90;99.90;;;;;;5095306;28;20554;-59
2024/01/29 06:50:44;;;;;;;1.30;1.20;;;5.00;99.90;;;;;;5095455;28;20035;-58
2024/01/29 06:53:10;;;;;;;1.80;1.45;;;5.30;99.90;;;;;;5095662;28;20067;-61
2024/01/29 06:55:36;;;;;;;1.45;1.35;;;5.00;99.90;;;;;;5095542;28;20040;-58
2024/01/29 06:58:01;;;;;;;1.88;1.60;;;5.00;99.90;;;;;;5095435;28;20058;-58
2024/01/29 07:00:27;;;;;;;2.05;1.60;;;3.80;99.90;;;;;;5095584;28;20433;-58
2024/01/29 07:02:53;;;;;;;1.40;1.30;;;5.90;99.90;;;;;;5095157;28;20096;-58
2024/01/29 07:05:18;;;;;;;1.33;1.23;;;5.00;99.90;;;;;;5095452;28;20075;-58
2024/01/29 07:07:44;;;;;;;1.40;1.30;;;4.90;99.90;;;;;;5095554;28;20051;-58
2024/01/29 07:10:22;;;;;;;1.40;1.30;;;5.50;99.90;;;;;;5096224;28;20492;-57
2024/01/29 07:12:55;;;;;;;1.52;1.42;;;5.00;99.90;;;;;;5095180;28;20040;-57
2024/01/29 07:15:21;;;;;;;1.30;1.20;;;5.00;99.90;;;;;;5095060;28;20043;-58
2024/01/29 07:17:47;;;;;;;1.58;1.45;;;5.00;99.90;;;;;;5077175;28;20501;-58
2024/01/29 07:20:12;;;;;;;1.50;1.15;;;4.90;99.90;;;;;;5094876;28;20069;-58
2024/01/29 07:22:38;;;;;;;1.55;1.45;;;4.90;99.90;;;;;;5094936;28;20036;-59
2024/01/29 07:25:05;;;;;;;1.42;1.33;;;4.90;99.90;;;;;;5095197;28;20035;-57
2024/01/29 07:27:31;;;;;;;1.45;1.35;;;4.80;99.90;;;;;;5094759;28;20089;-58
2024/01/29 07:29:57;;;;;;;2.17;1.60;;;4.80;99.90;;;;;;5094967;28;20048;-57
2024/01/29 07:32:23;;;;;;;1.70;1.25;;;4.80;1.00;;;;;;5094623;28;20028;-58
2024/01/29 07:34:48;;;;;;;2.30;1.48;;;5.60;1.00;;;;;;5094768;28;20047;-58
2024/01/29 07:37:14;;;;;;;1.73;1.52;;;4.60;1.00;;;;;;5076433;28;20040;-58
2024/01/29 07:39:41;;;;;;;1.30;1.20;;;4.70;1.00;;;;;;5094384;28;20047;-58
2024/01/29 07:42:07;;;;;;;3.40;1.50;;;4.60;1.00;;;;;;5094730;28;20111;-58
2024/01/29 07:44:33;;;;;;;1.77;1.50;;;4.50;1.00;;;;;;5094678;28;20132;-59
2024/01/29 07:46:58;;;;;;;1.40;1.30;;;6.10;1.00;;;;;;5094592;28;20043;-59
2024/01/29 07:49:24;;;;;;;2.25;1.65;;;4.80;1.00;;;;;;5094251;28;20165;-58
2024/01/29 07:51:50;;;;;;;1.20;1.20;;;4.60;1.00;;;;;;5094242;28;20036;-60
2024/01/29 07:54:15;;;;;;;1.30;1.20;;;4.50;1.00;;;;;;5076376;28;20133;-62
2024/01/29 07:56:42;;;;;;;1.73;1.42;;;4.60;1.00;;;;;;5094294;28;20032;-63
2024/01/29 07:59:08;;;;;;;1.58;1.40;;;4.70;1.00;;;;;;5094407;28;20044;-62
2024/01/29 08:01:33;;;;;;;1.42;1.33;;;4.70;1.00;;;;;;5094378;28;20498;-62
2024/01/29 08:04:01;;;;;;;2.05;1.33;;;4.80;1.00;;;;;;5093873;28;20044;-63
2024/01/29 08:06:27;;;;;;;1.70;1.60;;;5.00;1.00;;;;;;5094290;28;20380;-63
2024/01/29 08:08:53;;;;;;;1.52;1.42;;;5.20;1.00;;;;;;5094122;28;20040;-63
2024/01/29 08:11:25;;;;;;;1.67;1.58;;;5.40;1.00;;;;;;5094465;28;20056;-63
2024/01/29 08:13:50;;;;;;;1.15;1.13;;;5.90;1.00;;;;;;5093135;28;20110;-62
2024/01/29 08:16:16;;;;;;;1.60;1.50;;;5.00;1.00;;;;;;5075891;28;20078;-62
2024/01/29 08:18:42;;;;;;;1.58;1.48;;;5.00;1.00;;;;;;5093969;28;20043;-62
2024/01/29 08:21:07;;;;;;;1.80;1.65;;;5.00;1.00;;;;;;5093893;28;20048;-62
2024/01/29 08:23:33;;;;;;;2.30;1.58;;;5.10;1.00;;;;;;5093848;28;20078;-62
2024/01/29 08:25:59;;;;;;;1.95;1.75;;;5.10;1.00;;;;;;5093812;28;20131;-62
2024/01/29 08:28:24;;;;;;;1.42;1.33;;;5.40;1.00;;;;;;5093783;28;20047;-62
2024/01/29 08:30:51;;;;;;;2.38;1.40;;;5.00;1.00;;;;;;5093735;28;20043;-63
2024/01/29 08:33:17;;;;;;;1.20;1.10;;;5.20;1.00;;;;;;5093768;28;20100;-62
2024/01/29 08:35:42;;;;;;;1.58;1.45;;;6.50;1.00;;;;;;5093717;28;20132;-62
2024/01/29 08:38:09;;;;;;;1.60;1.40;;;5.40;1.00;;;;;;5093647;28;20047;-63
2024/01/29 08:40:35;;;;;;;1.60;1.50;;;6.00;1.00;;;;;;5093589;28;20090;-62
2024/01/29 08:43:00;;;;;;;1.73;1.55;;;5.60;1.00;;;;;;5075220;28;20507;-62
2024/01/29 08:45:26;;;;;;;1.60;1.50;;;5.70;1.00;;;;;;5093496;28;20093;-62
2024/01/29 08:47:52;;;;;;;1.30;1.20;;;5.80;1.00;;;;;;5093090;28;20199;-62
2024/01/29 08:50:17;;;;;;;1.63;1.45;;;6.00;1.00;;;;;;5093456;28;20036;-62
2024/01/29 08:52:43;;;;;;;1.42;1.33;;;6.20;1.00;;;;;;5093483;28;20426;-62
2024/01/29 08:55:09;;;;;;;1.48;1.38;;;6.20;1.00;;;;;;5093103;28;20097;-62
2024/01/29 08:57:34;;;;;;;1.58;1.42;;;6.10;99.90;;;;;;5093309;28;20032;-62
2024/01/29 09:00:00;;;;;;;1.58;1.48;;;6.10;99.90;;;;;;5093343;28;20044;-61
2024/01/29 09:02:27;;;;;;;1.38;1.27;;;6.20;99.90;;;;;;5093432;28;20471;-61
2024/01/29 09:04:53;;;;;;;1.85;1.60;;;6.20;99.90;;;;;;5093265;28;20510;-62
2024/01/29 09:07:19;;;;;;;1.85;1.65;;;6.20;99.90;;;;;;5093341;28;20048;-62
2024/01/29 09:09:46;;;;;;;1.58;1.48;;;6.50;99.90;;;;;;5093163;28;20044;-62
2024/01/29 09:12:18;;;;;;;1.45;1.35;;;6.30;99.90;;;;;;5093604;28;20064;-63
2024/01/29 09:14:44;;;;;;;1.48;1.33;;;6.40;99.90;;;;;;5093150;28;20487;-62
2024/01/29 09:17:09;;;;;;;1.77;1.67;;;7.00;99.90;;;;;;5093213;28;20032;-62
2024/01/29 09:19:35;;;;;;;1.38;1.27;;;6.50;99.90;;;;;;5093113;28;20043;-62
2024/01/29 09:22:01;;;;;;;1.92;1.67;;;7.20;99.90;;;;;;5092949;28;20475;-62
2024/01/29 09:24:26;;;;;;;1.50;1.40;;;6.60;99.90;;;;;;5093116;28;20074;-62
2024/01/29 09:26:52;;;;;;;2.42;1.80;;;6.60;99.90;;;;;;5097140;28;20097;-62
2024/01/29 09:29:17;;;;;;;1.67;1.58;;;6.80;99.90;;;;;;5096923;28;20079;-61
2024/01/29 09:31:43;;;;;;;1.60;1.50;;;7.20;99.90;;;;;;5096956;28;20119;-62
2024/01/29 09:34:09;;;;;;;1.85;1.67;;;6.80;99.90;;;;;;5097114;28;20047;-62
2024/01/29 09:36:35;;;;;;;1.60;1.50;;;6.80;99.90;;;;;;5096914;28;20039;-62
2024/01/29 09:39:01;;;;;;;1.90;1.60;;;6.90;99.90;;;;;;5097077;28;20119;-62
2024/01/29 09:41:33;;;;;;;1.65;1.55;;;7.50;99.90;;;;;;5078597;28;20460;-63
2024/01/29 09:44:02;;;;;;;2.10;1.77;;;7.00;99.90;;;;;;5096913;28;20101;-63
2024/01/29 09:46:28;;;;;;;1.88;1.50;;;7.00;99.90;;;;;;5096943;28;20039;-62
2024/01/29 09:48:55;;;;;;;1.70;1.60;;;7.40;99.90;;;;;;5096871;28;20070;-62
2024/01/29 09:51:22;;;;;;;1.95;1.85;;;7.70;99.90;;;;;;5096813;28;20085;-63
2024/01/29 09:53:50;;;;;;;1.90;1.80;;;7.60;99.90;;;;;;5096737;28;20393;-62
2024/01/29 09:56:16;;;;;;;1.60;1.50;;;7.90;99.90;;;;;;5078332;28;20067;-62
2024/01/29 09:58:41;;;;;;;2.05;1.58;;;7.40;99.90;;;;;;5096672;28;20040;-62
2024/01/29 10:01:10;;;;;;;2.05;1.85;;;7.70;99.90;;;;;;5096623;28;20499;-62
2024/01/29 10:03:38;;;;;;;2.00;1.88;;;7.70;99.90;;;;;;5078100;28;20127;-62
2024/01/29 10:06:04;;;;;;;1.75;1.65;;;7.80;99.90;;;;;;5096166;28;20123;-62
2024/01/29 10:08:32;;;;;;;1.70;1.60;;;7.60;99.90;;;;;;5096454;28;20496;-62
2024/01/29 10:10:58;;;;;;;2.00;1.80;;;7.60;99.90;;;;;;5078502;28;20126;-62
2024/01/29 10:13:37;;;;;;;3.15;1.88;;;7.60;99.90;;;;;;5096403;28;20052;-73
2024/01/29 10:16:03;;;;;;;1.73;1.60;;;8.60;99.90;;;;;;5096180;28;20047;-72
2024/01/29 10:18:30;;;;;;;1.98;1.77;;;7.70;99.90;;;;;;5096413;28;20399;-72
2024/01/29 10:21:03;;;;;;;2.20;2.00;;;8.70;99.90;;;;;;5096190;28;20396;-73
2024/01/29 10:23:29;;;;;;;2.08;1.70;;;7.70;99.90;;;;;;5096228;28;20036;-73
2024/01/29 10:26:04;;;;;;;1.63;1.52;;;8.00;99.90;;;;;;5097817;28;20456;-73
2024/01/29 10:28:29;;;;;;;2.47;2.28;;;7.50;99.90;;;;;;5097644;28;20051;-74
2024/01/29 10:30:56;;;;;;;1.65;1.50;;;8.20;99.90;;;;;;5078610;28;20036;-70
2024/01/29 10:33:22;;;;;;;1.75;1.65;;;8.10;99.90;;;;;;5096999;28;20545;-73
2024/01/29 10:35:51;;;;;;;2.28;2.08;;;8.10;99.90;;;;;;5097413;28;20391;-74
2024/01/29 10:38:22;;;;;;;2.20;2.00;;;8.00;99.90;;;;;;5095624;28;20039;-73
2024/01/29 10:40:49;;;;;;;1.85;1.70;;;8.00;99.90;;;;;;5096249;28;20036;-73
2024/01/29 10:43:21;;;;;;;2.30;2.00;;;7.90;99.90;;;;;;5095925;28;20391;-72
2024/01/29 10:45:50;;;;;;;2.13;1.90;;;8.00;99.90;;;;;;5097144;28;20036;-73
2024/01/29 10:48:20;;;;;;;1.83;1.73;;;8.10;99.90;;;;;;5097693;28;20082;-74
2024/01/29 10:50:47;;;;;;;2.35;2.15;;;8.10;99.90;;;;;;5096468;28;20036;-72
2024/01/29 10:53:15;;;;;;;2.33;1.80;;;8.20;99.90;;;;;;5078722;28;20075;-73
2024/01/29 10:55:49;;;;;;;2.25;2.05;;;9.00;99.90;;;;;;5096698;28;20101;-72
2024/01/29 10:58:15;;;;;;;2.20;1.98;;;8.20;99.90;;;;;;5095655;28;20040;-73
2024/01/29 11:00:42;;;;;;;3.42;2.00;;;8.20;99.90;;;;;;5095594;28;20040;-72
2024/01/29 11:03:10;;;;;;;2.03;1.80;;;9.40;99.90;;;;;;5096190;28;20036;-73
2024/01/29 11:05:37;;;;;;;2.28;1.95;;;9.20;99.90;;;;;;5096153;28;20043;-72
2024/01/29 11:08:08;;;;;;;2.03;1.90;;;8.40;99.90;;;;;;5095841;28;20483;-72
2024/01/29 11:10:41;;;;;;;2.10;1.93;;;8.40;99.90;;;;;;5096690;28;20052;-74
2024/01/29 11:13:22;;;;;;;2.05;1.90;;;8.50;99.90;;;;;;5096860;28;20449;-73
2024/01/29 11:15:48;;;;;;;2.58;1.92;;;8.60;99.90;;;;;;5096063;28;20063;-73
2024/01/29 11:18:15;;;;;;;2.40;2.15;;;8.70;99.90;;;;;;5096582;28;20480;-73
2024/01/29 11:20:40;;;;;;;2.17;1.98;;;9.00;99.90;;;;;;5096112;28;20505;-72
2024/01/29 11:23:09;;;;;;;1.88;1.75;;;8.90;99.90;;;;;;5096307;28;20048;-57
2024/01/29 11:25:37;;;;;;;2.70;2.50;;;8.90;99.90;;;;;;5076662;28;20044;-58
2024/01/29 11:28:06;;;;;;;2.33;2.10;;;9.20;99.90;;;;;;5094603;28;20040;-59
2024/01/29 11:30:32;;;;;;;2.17;2.08;;;9.00;99.90;;;;;;5094658;28;20052;-59
2024/01/29 11:33:18;;;;;;;2.05;1.92;;;9.50;99.90;;;;;;5094980;28;20042;-58
2024/01/29 11:35:45;;;;;;;2.15;1.95;;;9.20;99.90;;;;;;5094271;28;20399;-65
2024/01/29 11:38:13;;;;;;;2.15;1.90;;;9.20;99.90;;;;;;5094690;28;20144;-59
2024/01/29 11:40:40;;;;;;;2.30;2.00;;;9.40;99.90;;;;;;5094351;28;20078;-58
2024/01/29 11:43:16;;;;;;;2.47;2.28;;;9.50;99.90;;;;;;5094697;28;20114;-59
2024/01/29 11:45:48;;;;;;;2.28;2.08;;;9.70;99.90;;;;;;5094529;28;20519;-60
2024/01/29 11:48:15;;;;;;;2.22;2.03;;;10.50;99.90;;;;;;5093488;28;20055;-58
2024/01/29 11:50:45;;;;;;;2.28;2.08;;;10.30;34.80;;;;;;5075881;28;20077;-59
2024/01/29 11:53:12;;;;;;;2.53;1.90;;;10.40;1.00;;;;;;5094068;28;20426;-58
2024/01/29 11:55:39;;;;;;;2.03;1.88;;;10.50;99.90;;;;;;5076071;28;20484;-59
2024/01/29 11:58:10;;;;;;;2.58;2.33;;;10.40;99.90;;;;;;5075975;28;20395;-59
2024/01/29 12:00:36;;;;;;;2.75;2.50;;;10.20;99.90;;;;;;5094347;28;20036;-59
2024/01/29 12:03:03;;;;;;;2.47;2.28;;;10.10;99.90;;;;;;5094169;28;20047;-60
2024/01/29 12:05:29;;;;;;;2.10;1.90;;;9.90;99.90;;;;;;5093379;28;20051;-59
2024/01/29 12:07:55;;;;;;;2.15;2.05;;;9.80;1.00;;;;;;5093096;28;20043;-58
2024/01/29 12:10:27;;;;;;;2.30;2.10;;;9.80;99.90;;;;;;5093762;28;20845;-59
2024/01/29 12:13:18;;;;;;;2.28;2.08;;;9.60;99.90;;;;;;5093294;28;20137;-61
2024/01/29 12:15:45;;;;;;;7.93;2.90;;;9.60;99.90;;;;;;5093188;28;20046;-58
2024/01/29 12:18:20;;;;;;;2.30;2.10;;;9.50;99.90;;;;;;5093188;28;20024;-58
2024/01/29 12:20:47;;;;;;;2.22;2.03;;;9.50;99.90;;;;;;5075068;28;20036;-58
2024/01/29 12:23:13;;;;;;;3.28;2.25;;;10.00;99.90;;;;;;5074559;28;20067;-58
2024/01/29 12:25:39;;;;;;;2.10;2.00;;;10.00;99.90;;;;;;5093046;28;20089;-59
2024/01/29 12:28:09;;;;;;;2.75;2.22;;;10.00;99.90;;;;;;5092975;28;20028;-59
2024/01/29 12:30:36;;;;;;;2.53;2.33;;;9.50;99.90;;;;;;5092833;28;20399;-59
2024/01/29 12:33:06;;;;;;;2.08;1.88;;;9.50;99.90;;;;;;5092858;28;20372;-63
2024/01/29 12:35:32;;;;;;;2.33;2.13;;;9.40;1.00;;;;;;5092733;28;20040;-63
2024/01/29 12:38:08;;;;;;;3.13;2.30;;;9.40;1.00;;;;;;5092756;28;20123;-63
2024/01/29 12:40:35;;;;;;;2.67;2.47;;;9.30;1.00;;;;;;5092692;28;20078;-62
2024/01/29 12:43:01;;;;;;;2.72;2.53;;;9.30;1.00;;;;;;5092539;28;20510;-63
2024/01/29 12:45:27;;;;;;;2.67;2.47;;;9.30;1.00;;;;;;5074408;28;20544;-63
2024/01/29 12:48:15;;;;;;;3.13;2.83;;;9.30;1.60;;;;;;5092220;28;20044;-63
2024/01/29 12:50:41;;;;;;;3.28;2.50;;;9.20;10.60;;;;;;5092419;28;20036;-63
2024/01/29 12:53:10;;;;;;;3.50;3.20;;;9.50;29.00;;;;;;5092633;28;20093;-63
2024/01/29 12:55:36;;;;;;;3.03;2.72;;;9.20;40.10;;;;;;5092539;28;20101;-63
2024/01/29 12:58:02;;;;;;;3.50;3.17;;;9.10;47.60;;;;;;5092133;28;20040;-62